Portada
METAR-TAF:

METAR-TAF

Aeroports :

Karachi, Pakistan

latitud: 24-54N, longitud: 067-08E, altitud: 21 m

Observació

L'informe es va fer fa 37 minuts, a les 23:00 UTC
Vent 10 kt del Nord/Nord-Est
Temperatura 17°C
Humitat 45%
Pressió 1021 hPa
Visibilitat: 5000 m
calitja

METAR: OPKC 272300Z 02010KT 5000 HZ NSC 17/05 Q1021 NOSIG

Hora: 04:37 (23:37 UTC)

Pronòstic

L'informe es va fer fa 2 hores i 7 minuts, a les 21:30 UTC
Pronòstic vàlid del 28 a les 00 UTC al 29 a les 06 UTC
Vent 10 kt del Est/Nord-Est amb ràfegues de 20 kt
Visibilitat: 5000 m
calitja
Temporalment
l' 28 a les 00 UTC al 28 a les 04 UTC
Vent 10 kt del Nord/Nord-Est
Visibilitat: 3000 m
fum
A partir de les 28 a les 1600 UTC
Vent 10 kt del Nord-Est
Visibilitat: 4000 m
calitja
Temporalment
l' 29 a les 00 UTC al 29 a les 06 UTC
Vent 5 kt del Nord/Nord-Est
Visibilitat: 2000 m
fum

TAF: OPKC 272130Z 2800/2906 06010G20KT 5000 HZ NSC TEMPO 2800/2804 02010KT 3000 FU NSC FM281600 04010KT 4000 HZ NSC TEMPO 2900/2906 02005KT 2000 FU NSC

Observacions i pronòstics meteorològics de més de 4000 aeroports (METAR i TAF).

Les estacions disponibles són els punts grocs i vermells al mapa.

Posi el ratolí al punt desitjat per veure el nom de l'estació.

Feu clic per veure les observacions i els pronòstics meteorològics.

Per canviar el mapa: feu clic els botons verds amb una creu de color negre per apropar; al botó verd amb un guió per allunyar la imatge; o en les fletxes verdes per a mapes adjacents.


METAR-TAF: